Time;durP1;ratioP1;P1;durP2;ratioP2;P2;SDS_P1;SDS_P2;PMS_P1;PMS_P2;Temp;Humidity;BMP_temperature;BMP_pressure;BME280_temperature;BME280_humidity;BME280_pressure;Samples;Min_cycle;Max_cycle;Signal;HPM_P1;HPM_P2
2023/10/26 00:01:35;;;;;;;5.07;4.67;;;;;;;;;;6205401;28;20191;-67
2023/10/26 00:04:36;;;;;;;5.73;4.33;;;;;;;;;;6216317;28;20385;-68
2023/10/26 00:07:37;;;;;;;6.80;4.97;;;;;;;;;;6206274;28;20195;-67
2023/10/26 00:10:42;;;;;;;6.70;5.00;;;;;;;;;;6204770;28;20198;-68
2023/10/26 00:13:43;;;;;;;7.87;5.20;;;;;;;;;;6198457;28;20195;-68
2023/10/26 00:16:44;;;;;;;8.40;5.03;;;;;;;;;;6215909;28;20202;-68
2023/10/26 00:19:45;;;;;;;5.57;4.73;;;;;;;;;;6203646;28;20217;-70
2023/10/26 00:22:46;;;;;;;5.20;4.77;;;;;;;;;;6206605;28;20213;-68
2023/10/26 00:25:47;;;;;;;7.57;5.23;;;;;;;;;;6212824;28;20230;-68
2023/10/26 00:28:48;;;;;;;8.37;5.53;;;;;;;;;;6202980;28;20195;-68
2023/10/26 00:31:50;;;;;;;11.00;5.67;;;;;;;;;;6204519;28;20191;-68
2023/10/26 00:34:51;;;;;;;6.10;5.30;;;;;;;;;;6192628;28;20203;-67
2023/10/26 00:37:52;;;;;;;5.17;4.10;;;;;;;;;;6206927;28;20203;-67
2023/10/26 00:40:53;;;;;;;7.77;5.50;;;;;;;;;;6212605;28;20229;-68
2023/10/26 00:43:54;;;;;;;5.30;4.37;;;;;;;;;;6206653;28;20194;-68
2023/10/26 00:46:55;;;;;;;5.20;4.53;;;;;;;;;;6214835;28;20201;-68
2023/10/26 00:49:56;;;;;;;5.10;4.50;;;;;;;;;;6228087;28;20194;-67
2023/10/26 00:52:58;;;;;;;6.67;4.93;;;;;;;;;;6206836;28;20248;-67
2023/10/26 00:55:59;;;;;;;5.10;4.60;;;;;;;;;;6199292;28;20226;-67
2023/10/26 00:59:00;;;;;;;7.67;4.40;;;;;;;;;;6201025;28;20215;-67
2023/10/26 01:02:02;;;;;;;5.17;4.63;;;;;;;;;;6201446;28;20202;-67
2023/10/26 01:05:03;;;;;;;5.57;4.97;;;;;;;;;;6204966;28;20192;-68
2023/10/26 01:08:05;;;;;;;8.87;5.27;;;;;;;;;;6213751;28;20206;-67
2023/10/26 01:11:06;;;;;;;6.83;4.57;;;;;;;;;;6220486;28;20217;-68
2023/10/26 01:14:07;;;;;;;8.27;4.87;;;;;;;;;;6204565;28;20213;-68
2023/10/26 01:17:23;;;;;;;6.67;5.97;;;;;;;;;;6207295;28;20196;-68
2023/10/26 01:20:24;;;;;;;5.83;5.23;;;;;;;;;;6209891;28;20221;-68
2023/10/26 01:23:25;;;;;;;6.90;5.13;;;;;;;;;;6209930;28;20198;-67
2023/10/26 01:26:26;;;;;;;5.80;4.80;;;;;;;;;;6208644;28;20241;-68
2023/10/26 01:29:27;;;;;;;5.77;4.53;;;;;;;;;;6213856;28;20278;-68
2023/10/26 01:32:28;;;;;;;8.10;5.70;;;;;;;;;;6214429;28;20194;-67
2023/10/26 01:35:35;;;;;;;7.00;4.87;;;;;;;;;;6206062;28;20199;-67
2023/10/26 01:38:37;;;;;;;8.10;5.30;;;;;;;;;;6240633;28;20251;-68
2023/10/26 01:41:38;;;;;;;6.13;5.53;;;;;;;;;;6225461;28;20190;-67
2023/10/26 01:44:39;;;;;;;4.97;4.47;;;;;;;;;;6210203;28;20190;-68
2023/10/26 01:47:40;;;;;;;7.03;5.00;;;;;;;;;;6226255;28;20206;-67
2023/10/26 01:50:41;;;;;;;6.57;4.63;;;;;;;;;;6205954;28;20241;-67
2023/10/26 01:53:42;;;;;;;8.57;4.63;;;;;;;;;;6211040;28;20194;-68
2023/10/26 01:56:43;;;;;;;7.03;4.13;;;;;;;;;;6245925;28;20189;-68
2023/10/26 01:59:45;;;;;;;5.60;4.27;;;;;;;;;;6210177;28;20223;-67
2023/10/26 02:02:47;;;;;;;7.03;4.87;;;;;;;;;;6208519;28;20265;-68
2023/10/26 02:05:49;;;;;;;6.83;4.57;;;;;;;;;;6213418;28;20250;-67
2023/10/26 02:08:50;;;;;;;6.00;4.63;;;;;;;;;;6226187;28;20194;-67
2023/10/26 02:11:51;;;;;;;5.90;4.57;;;;;;;;;;6198353;28;20198;-67
2023/10/26 02:14:52;;;;;;;8.10;4.17;;;;;;;;;;6209027;28;20218;-68
2023/10/26 02:17:53;;;;;;;5.10;4.20;;;;;;;;;;6209431;28;20226;-67
2023/10/26 02:20:55;;;;;;;6.27;4.50;;;;;;;;;;6209857;28;20269;-67
2023/10/26 02:23:56;;;;;;;7.60;3.90;;;;;;;;;;6233141;28;20248;-67
2023/10/26 02:26:57;;;;;;;8.77;5.10;;;;;;;;;;6213216;28;20234;-67
2023/10/26 02:29:58;;;;;;;6.10;4.77;;;;;;;;;;6224929;28;20239;-68
2023/10/26 02:32:59;;;;;;;6.30;4.73;;;;;;;;;;6245475;28;20186;-67
2023/10/26 02:36:00;;;;;;;4.90;4.20;;;;;;;;;;6223332;28;20199;-67
2023/10/26 02:39:01;;;;;;;6.20;4.70;;;;;;;;;;6227627;28;20229;-67
2023/10/26 02:42:02;;;;;;;5.90;4.40;;;;;;;;;;6211365;28;20204;-67
2023/10/26 02:45:03;;;;;;;5.20;4.27;;;;;;;;;;6229423;28;20186;-67
2023/10/26 02:48:05;;;;;;;5.07;4.10;;;;;;;;;;6212852;28;20192;-68
2023/10/26 02:51:06;;;;;;;5.57;4.33;;;;;;;;;;6196181;28;20199;-67
2023/10/26 02:54:07;;;;;;;10.60;4.67;;;;;;;;;;6202133;28;20195;-67
2023/10/26 02:57:08;;;;;;;6.60;4.37;;;;;;;;;;6206030;28;20236;-67
2023/10/26 03:00:09;;;;;;;7.17;5.03;;;;;;;;;;6207228;28;20240;-67
2023/10/26 03:03:10;;;;;;;8.60;5.07;;;;;;;;;;6212593;28;20194;-67
2023/10/26 03:06:11;;;;;;;6.00;5.40;;;;;;;;;;6213151;28;20245;-67
2023/10/26 03:09:13;;;;;;;7.03;5.50;;;;;;;;;;6207691;28;20206;-67
2023/10/26 03:12:14;;;;;;;7.00;4.97;;;;;;;;;;6204232;28;20201;-67
2023/10/26 03:15:15;;;;;;;6.27;4.80;;;;;;;;;;6208490;28;20198;-67
2023/10/26 03:18:17;;;;;;;7.03;5.53;;;;;;;;;;6211365;28;21047;-67
2023/10/26 03:21:20;;;;;;;6.57;4.53;;;;;;;;;;6206360;28;20186;-64
2023/10/26 03:24:21;;;;;;;9.30;5.10;;;;;;;;;;6202211;28;20192;-65
2023/10/26 03:27:22;;;;;;;5.87;4.13;;;;;;;;;;6212058;28;20232;-65
2023/10/26 03:30:23;;;;;;;5.47;4.43;;;;;;;;;;6206212;28;20244;-65
2023/10/26 03:33:24;;;;;;;5.60;5.00;;;;;;;;;;6208385;28;20225;-63
2023/10/26 03:36:25;;;;;;;11.40;5.40;;;;;;;;;;6206544;28;20194;-63
2023/10/26 03:39:26;;;;;;;5.00;4.50;;;;;;;;;;6214175;28;20226;-65
2023/10/26 03:42:27;;;;;;;5.17;4.40;;;;;;;;;;6216124;28;20183;-65
2023/10/26 03:45:28;;;;;;;6.20;4.40;;;;;;;;;;6206924;28;20191;-66
2023/10/26 03:48:29;;;;;;;6.30;4.83;;;;;;;;;;6221518;28;20190;-65
2023/10/26 03:51:31;;;;;;;9.47;4.60;;;;;;;;;;6212124;28;20193;-66
2023/10/26 03:54:32;;;;;;;4.90;4.50;;;;;;;;;;6207832;28;20194;-66
2023/10/26 03:57:33;;;;;;;11.33;5.27;;;;;;;;;;6213637;28;20215;-65
2023/10/26 04:00:34;;;;;;;7.50;5.50;;;;;;;;;;6208760;28;20222;-65
2023/10/26 04:03:35;;;;;;;7.37;5.27;;;;;;;;;;6205173;28;20194;-66
2023/10/26 04:06:36;;;;;;;7.00;5.43;;;;;;;;;;6201773;28;20189;-67
2023/10/26 04:09:38;;;;;;;9.10;5.50;;;;;;;;;;6212450;28;20211;-67
2023/10/26 04:12:39;;;;;;;8.10;5.80;;;;;;;;;;6213508;28;20197;-67
2023/10/26 04:15:40;;;;;;;8.40;5.57;;;;;;;;;;6213344;28;20190;-65
2023/10/26 04:18:41;;;;;;;8.23;6.43;;;;;;;;;;6209661;28;20272;-66
2023/10/26 04:21:42;;;;;;;7.60;5.50;;;;;;;;;;6205869;28;20203;-66
2023/10/26 04:24:43;;;;;;;7.57;5.80;;;;;;;;;;6211562;28;20199;-66
2023/10/26 04:27:44;;;;;;;7.40;5.43;;;;;;;;;;6198632;28;20235;-66
2023/10/26 04:30:47;;;;;;;7.87;5.83;;;;;;;;;;6196539;28;20222;-66
2023/10/26 04:33:48;;;;;;;8.90;6.20;;;;;;;;;;6197767;28;20258;-67
2023/10/26 04:36:49;;;;;;;9.10;5.63;;;;;;;;;;6209517;28;20199;-67
2023/10/26 04:39:51;;;;;;;8.67;5.67;;;;;;;;;;6203464;28;20234;-67
2023/10/26 04:42:52;;;;;;;8.03;5.47;;;;;;;;;;6195895;28;20195;-68
2023/10/26 04:45:53;;;;;;;6.13;5.53;;;;;;;;;;6208404;28;20194;-67
2023/10/26 04:48:54;;;;;;;6.40;5.40;;;;;;;;;;6198506;28;20262;-67
2023/10/26 04:51:55;;;;;;;8.07;5.83;;;;;;;;;;6203068;28;20191;-67
2023/10/26 04:54:56;;;;;;;7.67;5.57;;;;;;;;;;6202624;28;20202;-67
2023/10/26 04:57:57;;;;;;;5.70;4.63;;;;;;;;;;6199141;28;20198;-67
2023/10/26 05:00:59;;;;;;;7.67;6.07;;;;;;;;;;6201127;28;20675;-67
2023/10/26 05:04:00;;;;;;;6.67;5.80;;;;;;;;;;6202168;28;20192;-67
2023/10/26 05:07:02;;;;;;;7.40;5.43;;;;;;;;;;6214371;28;20238;-68
2023/10/26 05:10:05;;;;;;;9.00;5.67;;;;;;;;;;6212186;28;20281;-67
2023/10/26 05:13:06;;;;;;;8.13;5.87;;;;;;;;;;6220982;28;20191;-67
2023/10/26 05:16:07;;;;;;;7.10;5.53;;;;;;;;;;6201095;28;20198;-67
2023/10/26 05:19:08;;;;;;;8.00;5.70;;;;;;;;;;6208522;28;20225;-67
2023/10/26 05:22:09;;;;;;;8.40;5.67;;;;;;;;;;6206070;28;20197;-66
2023/10/26 05:25:12;;;;;;;6.40;5.80;;;;;;;;;;6205042;28;20199;-67
2023/10/26 05:28:13;;;;;;;7.03;5.40;;;;;;;;;;6217580;28;20311;-67
2023/10/26 05:31:14;;;;;;;8.43;5.67;;;;;;;;;;6200417;28;20249;-67
2023/10/26 05:34:15;;;;;;;11.70;5.73;;;;;;;;;;6204778;28;20199;-67
2023/10/26 05:37:16;;;;;;;7.33;5.63;;;;;;;;;;6205291;28;20206;-66
2023/10/26 05:40:17;;;;;;;7.03;5.30;;;;;;;;;;6200061;28;20291;-67
2023/10/26 05:43:18;;;;;;;7.33;5.27;;;;;;;;;;6196314;28;20223;-67
2023/10/26 05:46:20;;;;;;;5.90;5.10;;;;;;;;;;6223745;28;20197;-67
2023/10/26 05:49:21;;;;;;;7.70;5.80;;;;;;;;;;6208724;28;20196;-66
2023/10/26 05:52:22;;;;;;;6.80;5.53;;;;;;;;;;6205250;28;20288;-66
2023/10/26 05:55:23;;;;;;;8.00;5.00;;;;;;;;;;6215065;28;20223;-66
2023/10/26 05:58:25;;;;;;;8.87;5.57;;;;;;;;;;6205670;28;20201;-66
2023/10/26 06:01:26;;;;;;;9.93;5.80;;;;;;;;;;6199320;28;20201;-66
2023/10/26 06:04:27;;;;;;;5.43;4.93;;;;;;;;;;6198176;28;20223;-66
2023/10/26 06:07:28;;;;;;;7.50;5.33;;;;;;;;;;6204211;28;20202;-65
2023/10/26 06:10:29;;;;;;;5.93;5.33;;;;;;;;;;6200346;28;20226;-65
2023/10/26 06:13:30;;;;;;;6.40;4.97;;;;;;;;;;6199187;28;20215;-65
2023/10/26 06:16:32;;;;;;;8.23;5.20;;;;;;;;;;6206764;28;20223;-65
2023/10/26 06:19:33;;;;;;;7.53;5.70;;;;;;;;;;6219536;28;20214;-65
2023/10/26 06:22:35;;;;;;;7.70;5.10;;;;;;;;;;6203432;28;20274;-65
2023/10/26 06:25:36;;;;;;;8.23;4.83;;;;;;;;;;6203959;28;20188;-65
2023/10/26 06:28:37;;;;;;;5.50;4.90;;;;;;;;;;6219270;28;20197;-65
2023/10/26 06:31:38;;;;;;;5.57;5.03;;;;;;;;;;6206877;28;20183;-65
2023/10/26 06:34:39;;;;;;;7.07;5.70;;;;;;;;;;6210983;28;20191;-68
2023/10/26 06:37:41;;;;;;;8.80;5.53;;;;;;;;;;6216388;28;20275;-67
2023/10/26 06:40:44;;;;;;;6.30;5.33;;;;;;;;;;6208090;28;20233;-65
2023/10/26 06:43:45;;;;;;;7.10;5.80;;;;;;;;;;6217357;28;20195;-65
2023/10/26 06:46:46;;;;;;;6.00;5.17;;;;;;;;;;6206570;28;20187;-65
2023/10/26 06:49:47;;;;;;;5.50;5.00;;;;;;;;;;6203629;28;20236;-65
2023/10/26 06:52:48;;;;;;;6.93;5.03;;;;;;;;;;6223270;28;20194;-66
2023/10/26 06:55:49;;;;;;;7.33;4.77;;;;;;;;;;6206063;28;20209;-66
2023/10/26 06:58:50;;;;;;;6.83;5.17;;;;;;;;;;6209851;28;20216;-66
2023/10/26 07:01:53;;;;;;;6.67;4.80;;;;;;;;;;6204581;28;20285;-66
2023/10/26 07:04:54;;;;;;;5.70;5.10;;;;;;;;;;6206074;28;20188;-66
2023/10/26 07:07:55;;;;;;;7.57;5.10;;;;;;;;;;6203355;28;20274;-66
2023/10/26 07:10:56;;;;;;;9.03;5.53;;;;;;;;;;6224320;28;20197;-66
2023/10/26 07:13:58;;;;;;;5.83;5.13;;;;;;;;;;6190454;28;20194;-66
2023/10/26 07:16:59;;;;;;;12.70;5.57;;;;;;;;;;6211566;28;20791;-66
2023/10/26 07:20:00;;;;;;;6.13;5.53;;;;;;;;;;6202864;28;20218;-67
2023/10/26 07:23:01;;;;;;;8.97;5.70;;;;;;;;;;6201876;28;20196;-66
2023/10/26 07:26:02;;;;;;;9.63;5.80;;;;;;;;;;6210763;28;20238;-65
2023/10/26 07:29:03;;;;;;;7.97;5.27;;;;;;;;;;6211346;28;20285;-66
2023/10/26 07:32:05;;;;;;;6.47;5.17;;;;;;;;;;6207811;28;20224;-66
2023/10/26 07:35:06;;;;;;;5.37;4.87;;;;;;;;;;6206905;28;20199;-66
2023/10/26 07:38:08;;;;;;;6.97;5.90;;;;;;;;;;6215291;28;20190;-65
2023/10/26 07:41:09;;;;;;;6.93;4.90;;;;;;;;;;6223937;28;20227;-66
2023/10/26 07:44:10;;;;;;;6.80;5.13;;;;;;;;;;6205873;28;20195;-66
2023/10/26 07:47:12;;;;;;;6.73;4.87;;;;;;;;;;6219173;28;20194;-66
2023/10/26 07:50:17;;;;;;;6.87;5.03;;;;;;;;;;6208857;28;20203;-67
2023/10/26 07:53:18;;;;;;;6.20;4.80;;;;;;;;;;6211215;28;20195;-66
2023/10/26 07:56:19;;;;;;;6.27;4.77;;;;;;;;;;6208619;28;20293;-68
2023/10/26 07:59:20;;;;;;;6.10;5.13;;;;;;;;;;6202240;28;20220;-69
2023/10/26 08:02:21;;;;;;;7.77;5.07;;;;;;;;;;6222101;28;20285;-65
2023/10/26 08:05:22;;;;;;;5.07;4.57;;;;;;;;;;6225398;28;20246;-65
2023/10/26 08:08:23;;;;;;;6.23;5.23;;;;;;;;;;6213474;28;20201;-65
2023/10/26 08:11:24;;;;;;;7.37;4.77;;;;;;;;;;6212791;28;20213;-65
2023/10/26 08:14:26;;;;;;;8.37;5.97;;;;;;;;;;6225084;28;20194;-65
2023/10/26 08:17:28;;;;;;;6.73;5.40;;;;;;;;;;6209333;28;20249;-65
2023/10/26 08:20:29;;;;;;;5.90;5.37;;;;;;;;;;6217729;28;20243;-65
2023/10/26 08:23:32;;;;;;;5.20;4.70;;;;;;;;;;6197842;28;20237;-65
2023/10/26 08:26:34;;;;;;;5.90;5.30;;;;;;;;;;6209307;28;20245;-65
2023/10/26 08:29:35;;;;;;;5.90;5.30;;;;;;;;;;6208232;28;20195;-65
2023/10/26 08:32:37;;;;;;;5.20;4.70;;;;;;;;;;6210072;28;20195;-65
2023/10/26 08:35:39;;;;;;;5.10;4.60;;;;;;;;;;6216330;28;20205;-65
2023/10/26 08:38:40;;;;;;;5.80;4.63;;;;;;;;;;6219983;28;20202;-65
2023/10/26 08:41:46;;;;;;;4.87;4.43;;;;;;;;;;6212758;28;20214;-65
2023/10/26 08:44:47;;;;;;;5.27;4.53;;;;;;;;;;6222172;28;20183;-65
2023/10/26 08:47:49;;;;;;;7.93;5.37;;;;;;;;;;6203134;28;20196;-65
2023/10/26 08:50:50;;;;;;;4.67;4.27;;;;;;;;;;6212144;28;20192;-65
2023/10/26 08:53:52;;;;;;;4.80;4.17;;;;;;;;;;6207639;28;20206;-65
2023/10/26 08:56:53;;;;;;;4.73;4.20;;;;;;;;;;6208242;28;20191;-65
2023/10/26 08:59:54;;;;;;;4.10;3.70;;;;;;;;;;6205035;28;20211;-65
2023/10/26 09:02:55;;;;;;;4.20;3.80;;;;;;;;;;6201856;28;20257;-66
2023/10/26 09:05:56;;;;;;;5.10;4.37;;;;;;;;;;6206392;28;20224;-66
2023/10/26 09:09:04;;;;;;;4.00;3.60;;;;;;;;;;6223385;28;20291;-66
2023/10/26 09:12:11;;;;;;;5.17;4.67;;;;;;;;;;6211398;28;20218;-66
2023/10/26 09:15:12;;;;;;;4.70;4.30;;;;;;;;;;6223728;28;20203;-66
2023/10/26 09:18:15;;;;;;;4.70;4.30;;;;;;;;;;6206139;28;20206;-66
2023/10/26 09:21:16;;;;;;;4.13;3.73;;;;;;;;;;6210763;28;20225;-66
2023/10/26 09:24:24;;;;;;;4.67;4.10;;;;;;;;;;6218967;28;20197;-66
2023/10/26 09:27:25;;;;;;;4.60;4.13;;;;;;;;;;6213854;28;20313;-66
2023/10/26 09:30:26;;;;;;;3.90;3.60;;;;;;;;;;6219419;28;20266;-66
2023/10/26 09:33:27;;;;;;;4.97;4.10;;;;;;;;;;6229115;28;20203;-66
2023/10/26 09:36:28;;;;;;;3.70;3.40;;;;;;;;;;6232220;28;20231;-66
2023/10/26 09:39:33;;;;;;;3.90;3.50;;;;;;;;;;6235447;28;20219;-65
2023/10/26 09:42:34;;;;;;;3.80;3.50;;;;;;;;;;6203486;28;20196;-65
2023/10/26 09:45:35;;;;;;;3.90;3.50;;;;;;;;;;6217880;28;20195;-65
2023/10/26 09:48:36;;;;;;;4.57;3.63;;;;;;;;;;6225027;28;20198;-65
2023/10/26 09:51:37;;;;;;;4.03;3.63;;;;;;;;;;6217987;28;20351;-67
2023/10/26 09:54:40;;;;;;;4.00;3.53;;;11.00;99.90;;;;;;6207654;28;20196;-66
2023/10/26 09:57:55;;;;;;;3.90;3.57;;;14.20;99.80;;;;;;6220130;28;20200;-65
2023/10/26 10:00:56;;;;;;;3.80;3.40;;;14.20;99.50;;;;;;6230280;28;20218;-66
2023/10/26 10:03:57;;;;;;;3.70;3.20;;;14.30;99.50;;;;;;6183660;28;20199;-65
2023/10/26 10:06:58;;;;;;;4.10;3.43;;;14.40;97.70;;;;;;6196535;28;20205;-66
2023/10/26 10:10:10;;;;;;;4.30;3.10;;;14.30;94.80;;;;;;6192561;28;20191;-66
2023/10/26 10:13:30;;;;;;;2.57;2.37;;;14.20;93.40;;;;;;6222757;28;20277;-66
2023/10/26 10:16:34;;;;;;;2.60;2.37;;;14.20;95.20;;;;;;6210398;28;20334;-66
2023/10/26 10:19:35;;;;;;;2.30;2.10;;;14.30;93.00;;;;;;6220756;28;20211;-66
2023/10/26 10:22:38;;;;;;;2.37;2.17;;;14.40;90.00;;;;;;6196633;28;20195;-66
2023/10/26 10:25:53;;;;;;;2.70;2.20;;;;;;;;;;6227408;28;20214;-66
2023/10/26 10:28:55;;;;;;;2.43;2.10;;;;;;;;;;6227353;28;20199;-66
2023/10/26 10:31:56;;;;;;;2.40;2.07;;;;;;;;;;6207944;28;20202;-66
2023/10/26 10:34:58;;;;;;;2.50;2.17;;;;;;;;;;6206665;28;20199;-66
2023/10/26 10:38:15;;;;;;;3.25;2.20;;;;;;;;;;6234040;28;20725;-65
2023/10/26 10:41:16;;;;;;;2.30;1.93;;;;;;;;;;6228465;28;20215;-68
2023/10/26 10:44:18;;;;;;;3.37;2.07;;;;;;;;;;6203236;28;20195;-67
2023/10/26 10:47:19;;;;;;;1.63;1.53;;;;;;;;;;6204652;28;20188;-68
2023/10/26 10:50:20;;;;;;;2.20;2.00;;;;;;;;;;6199407;28;20204;-68
2023/10/26 10:53:21;;;;;;;1.93;1.70;;;24.00;50.00;;;;;;6228605;28;20219;-66
2023/10/26 10:56:23;;;;;;;2.00;1.53;;;15.80;89.80;;;;;;6223546;28;20256;-66
2023/10/26 10:59:29;;;;;;;2.00;1.50;;;15.80;89.60;;;;;;6189796;28;20219;-66
2023/10/26 11:02:30;;;;;;;2.03;1.70;;;16.00;92.60;;;;;;6193094;28;20241;-66
2023/10/26 11:05:41;;;;;;;1.87;1.53;;;15.90;85.40;;;;;;6202868;28;20195;-65
2023/10/26 11:08:42;;;;;;;3.37;1.63;;;15.90;90.70;;;;;;6210240;28;20221;-66
2023/10/26 11:11:43;;;;;;;1.63;1.53;;;15.90;85.80;;;;;;6224059;28;20188;-66
2023/10/26 11:14:52;;;;;;;1.60;1.50;;;16.00;87.30;;;;;;6201933;28;20202;-66
2023/10/26 11:17:53;;;;;;;2.27;1.60;;;16.10;87.90;;;;;;6206557;28;20192;-66
2023/10/26 11:20:55;;;;;;;1.70;1.53;;;;;;;;;;6191563;28;20214;-66
2023/10/26 11:23:56;;;;;;;3.10;1.50;;;;;;;;;;6196713;28;20372;-66
2023/10/26 11:27:10;;;;;;;1.60;1.50;;;;;;;;;;6206548;28;20325;-68
2023/10/26 11:30:11;;;;;;;2.60;1.60;;;;;;;;;;6227990;28;20210;-70
2023/10/26 11:33:29;;;;;;;2.87;2.63;;;;;;;;;;6207716;28;20191;-70
2023/10/26 11:36:38;;;;;;;2.03;1.87;;;;;;;;;;6333330;27;20792;-67
2023/10/26 11:39:49;;;;;;;2.17;1.90;;;;;;;;;;6328780;28;20180;-66
2023/10/26 11:42:54;;;;;;;2.70;1.97;;;;;;;;;;6329683;28;20193;-66
2023/10/26 11:45:55;;;;;;;4.93;1.97;;;;;;;;;;6329766;28;20225;-66
2023/10/26 11:48:56;;;;;;;2.13;1.53;;;;;;;;;;6322816;28;20264;-66
2023/10/26 11:51:58;;;;;;;1.60;1.47;;;;;;;;;;6315868;28;20197;-66
2023/10/26 11:55:00;;;;;;;3.33;1.93;;;;;;;;;;6316272;28;20225;-67
2023/10/26 11:58:02;;;;;;;1.97;1.63;;;;;;;;;;6311418;28;20211;-67
2023/10/26 12:01:03;;;;;;;1.57;1.33;;;;;;;;;;6320351;28;20195;-67
2023/10/26 12:04:04;;;;;;;1.60;1.50;;;;;;;;;;6303849;28;20217;-67
2023/10/26 12:07:07;;;;;;;2.13;1.70;;;;;;;;;;6308001;28;20327;-67
2023/10/26 12:10:08;;;;;;;2.63;1.73;;;;;;;;;;6317588;28;20208;-67
2023/10/26 12:13:09;;;;;;;1.40;1.30;;;;;;;;;;6319407;28;20204;-67
2023/10/26 12:16:11;;;;;;;1.87;1.70;;;;;;;;;;6333912;28;20218;-67
2023/10/26 12:19:12;;;;;;;1.90;1.80;;;;;;;;;;6336437;28;20220;-66
2023/10/26 12:22:13;;;;;;;2.27;1.80;;;;;;;;;;6305184;28;20206;-66
2023/10/26 12:25:14;;;;;;;1.70;1.60;;;;;;;;;;6337229;28;20223;-66
2023/10/26 12:28:16;;;;;;;3.20;2.03;;;;;;;;;;6305004;28;20207;-66
2023/10/26 12:31:17;;;;;;;2.20;1.70;;;;;;;;;;6323438;28;20199;-66
2023/10/26 12:34:19;;;;;;;2.57;1.67;;;;;;;;;;6332770;28;20236;-66
2023/10/26 12:37:20;;;;;;;2.00;1.80;;;;;;;;;;6318795;28;20200;-66
2023/10/26 12:40:21;;;;;;;2.17;1.80;;;;;;;;;;6320727;28;20322;-66
2023/10/26 12:43:22;;;;;;;1.67;1.30;;;;;;;;;;6308603;28;20214;-66
2023/10/26 12:46:23;;;;;;;2.90;1.77;;;;;;;;;;6310784;28;20196;-66
2023/10/26 12:49:24;;;;;;;3.33;1.73;;;;;;;;;;6298694;28;20209;-66
2023/10/26 12:52:25;;;;;;;2.30;1.80;;;;;;;;;;6297847;28;20201;-66
2023/10/26 12:55:28;;;;;;;2.20;1.80;;;;;;;;;;6289771;28;20209;-66
2023/10/26 12:58:29;;;;;;;1.90;1.80;;;;;;;;;;6307951;28;20195;-66
2023/10/26 13:01:30;;;;;;;2.67;1.60;;;;;;;;;;6297922;28;20215;-66
2023/10/26 13:04:33;;;;;;;1.90;1.70;;;;;;;;;;6295144;28;20196;-66
2023/10/26 13:07:34;;;;;;;2.57;2.23;;;;;;;;;;6295585;28;20198;-66
2023/10/26 13:10:35;;;;;;;2.07;1.80;;;;;;;;;;6292162;28;20200;-68
2023/10/26 13:13:36;;;;;;;1.87;1.77;;;;;;;;;;6316705;28;20305;-70
2023/10/26 13:16:37;;;;;;;2.97;1.93;;;;;;;;;;6307224;28;20208;-69
2023/10/26 13:19:38;;;;;;;2.00;1.90;;;;;;;;;;6302377;28;20197;-70
2023/10/26 13:22:39;;;;;;;2.40;2.00;;;;;;;;;;6300471;28;20222;-67
2023/10/26 13:25:40;;;;;;;1.90;1.80;;;;;;;;;;6306764;28;20184;-71
2023/10/26 13:28:41;;;;;;;1.73;1.60;;;;;;;;;;6302083;28;20182;-70
2023/10/26 13:31:42;;;;;;;2.17;1.97;;;;;;;;;;6299862;28;20184;-70
2023/10/26 13:34:43;;;;;;;2.93;2.00;;;;;;;;;;6291996;28;20667;-71
2023/10/26 13:37:46;;;;;;;1.93;1.63;;;;;;;;;;6305066;28;20193;-68
2023/10/26 13:40:47;;;;;;;2.17;1.43;;;;;;;;;;6304072;28;20192;-68
2023/10/26 13:43:48;;;;;;;2.57;2.00;;;;;;;;;;6314412;28;20220;-68
2023/10/26 13:46:49;;;;;;;2.00;1.80;;;;;;;;;;6296703;28;20213;-66
2023/10/26 13:49:50;;;;;;;3.97;1.57;;;;;;;;;;6296884;28;20196;-66
2023/10/26 13:52:51;;;;;;;3.00;1.90;;;;;;;;;;6299733;28;20231;-65
2023/10/26 13:55:53;;;;;;;1.73;1.63;;;;;;;;;;6301935;28;20658;-65
2023/10/26 13:58:54;;;;;;;2.10;1.90;;;;;;;;;;6303081;28;20189;-65
2023/10/26 14:01:55;;;;;;;2.10;1.83;;;;;;;;;;6300984;28;20198;-65
2023/10/26 14:04:57;;;;;;;3.30;1.60;;;;;;;;;;6302484;28;20193;-65
2023/10/26 14:07:58;;;;;;;2.90;1.60;;;;;;;;;;6296474;28;20193;-65
2023/10/26 14:10:59;;;;;;;2.07;1.50;;;;;;;;;;6301833;28;20201;-65
2023/10/26 14:14:00;;;;;;;2.40;1.73;;;;;;;;;;6295284;28;20213;-64
2023/10/26 14:17:03;;;;;;;3.50;2.00;;;;;;;;;;6301146;28;20258;-64
2023/10/26 14:20:05;;;;;;;5.50;2.40;;;;;;;;;;6294824;28;20218;-65
2023/10/26 14:23:06;;;;;;;2.10;1.70;;;;;;;;;;6320690;28;20197;-65
2023/10/26 14:26:07;;;;;;;3.23;2.37;;;;;;;;;;6297948;28;20219;-65
2023/10/26 14:29:08;;;;;;;3.37;1.90;;;;;;;;;;6296458;28;20286;-64
2023/10/26 14:32:09;;;;;;;3.83;2.07;;;;;;;;;;6298433;28;20193;-64
2023/10/26 14:35:10;;;;;;;4.40;2.33;;;;;;;;;;6302358;28;20267;-64
2023/10/26 14:38:12;;;;;;;4.37;1.90;;;;;;;;;;6308113;28;20343;-64
2023/10/26 14:41:13;;;;;;;4.27;2.30;;;;;;;;;;6295685;28;20208;-64
2023/10/26 14:44:14;;;;;;;4.13;2.33;;;;;;;;;;6303117;28;20214;-65
2023/10/26 14:47:17;;;;;;;3.10;2.13;;;;;;;;;;6293110;28;20235;-63
2023/10/26 14:50:18;;;;;;;5.13;2.90;;;;;;;;;;6292267;28;20224;-64
2023/10/26 14:53:19;;;;;;;4.10;2.83;;;;;;;;;;6304011;28;20192;-65
2023/10/26 14:56:20;;;;;;;3.73;3.33;;;;;;;;;;6320490;28;20208;-65
2023/10/26 14:59:21;;;;;;;3.13;2.83;;;;;;;;;;6319700;28;20222;-65
2023/10/26 15:02:22;;;;;;;4.57;3.10;;;;;;;;;;6315897;28;20188;-65
2023/10/26 15:05:23;;;;;;;3.33;2.43;;;;;;;;;;6306153;28;20193;-65
2023/10/26 15:08:25;;;;;;;2.33;2.10;;;;;;;;;;6298740;28;20193;-65
2023/10/26 15:11:26;;;;;;;3.13;2.53;;;;;;;;;;6292792;28;20211;-69
2023/10/26 15:14:27;;;;;;;2.97;2.50;;;;;;;;;;6300100;28;20243;-65
2023/10/26 15:17:28;;;;;;;3.97;2.53;;;;;;;;;;6336025;28;20177;-65
2023/10/26 15:20:30;;;;;;;4.77;2.70;;;;;;;;;;6291342;28;20193;-66
2023/10/26 15:23:31;;;;;;;2.93;2.30;;;;;;;;;;6296303;28;20213;-65
2023/10/26 15:26:33;;;;;;;2.43;2.23;;;;;;;;;;6302790;28;20210;-65
2023/10/26 15:29:34;;;;;;;2.97;2.30;;;;;;;;;;6296147;28;20192;-65
2023/10/26 15:32:35;;;;;;;3.83;2.53;;;16.20;86.90;;;;;;6288214;28;20232;-65
2023/10/26 15:35:35;;;;;;;3.40;2.40;;;14.20;94.50;;;;;;6265135;28;20240;-65
2023/10/26 15:38:40;;;;;;;4.83;2.60;;;14.10;94.90;;;;;;6285026;28;20201;-65
2023/10/26 15:41:42;;;;;;;6.40;2.60;;;14.00;95.40;;;;;;6302487;28;20190;-65
2023/10/26 15:44:44;;;;;;;2.53;2.33;;;13.90;95.20;;;;;;6302908;28;20196;-65
2023/10/26 15:47:45;;;;;;;3.13;2.30;;;;;;;;;;6320219;28;20189;-65
2023/10/26 15:50:46;;;;;;;3.90;2.33;;;;;;;;;;6282404;28;20184;-65
2023/10/26 15:53:47;;;;;;;3.07;2.73;;;;;;;;;;6316138;28;20187;-65
2023/10/26 15:56:48;;;;;;;3.87;2.40;;;;;;;;;;6303426;28;20192;-65
2023/10/26 15:59:49;;;;;;;6.63;5.20;;;;;;;;;;6296951;28;20189;-64
2023/10/26 16:02:51;;;;;;;10.57;7.00;;;;;;;;;;6314188;28;20188;-65
2023/10/26 16:05:52;;;;;;;8.87;7.03;;;;;;;;;;6318053;28;20299;-65
2023/10/26 16:08:53;;;;;;;5.43;4.30;;;;;;;;;;6299511;28;20198;-65
2023/10/26 16:11:54;;;;;;;11.10;4.03;;;;;;;;;;6296616;28;20196;-65
2023/10/26 16:14:55;;;;;;;6.83;3.53;;;;;;;;;;6318498;28;20236;-65
2023/10/26 16:17:56;;;;;;;5.13;2.83;;;;;;;;;;6292047;28;20197;-65
2023/10/26 16:20:57;;;;;;;5.13;2.90;;;;;;;;;;6293676;28;20196;-65
2023/10/26 16:23:58;;;;;;;6.53;3.90;;;13.70;96.00;;;;;;6311861;28;20189;-65
2023/10/26 16:26:59;;;;;;;6.23;5.63;;;12.90;98.60;;;;;;6309206;28;20184;-64
2023/10/26 16:30:00;;;;;;;5.93;4.97;;;12.90;98.20;;;;;;6283016;28;20271;-66
2023/10/26 16:33:00;;;;;;;4.73;4.23;;;12.80;98.40;;;;;;6315248;28;20222;-65
2023/10/26 16:36:02;;;;;;;6.73;5.13;;;12.80;98.80;;;;;;6304296;28;20240;-65
2023/10/26 16:39:03;;;;;;;5.67;4.90;;;12.70;98.40;;;;;;6293715;28;20227;-66
2023/10/26 16:42:05;;;;;;;5.63;3.73;;;12.70;99.00;;;;;;6297774;28;20276;-66
2023/10/26 16:45:07;;;;;;;10.07;3.57;;;12.60;98.90;;;;;;6287269;28;20288;-68
2023/10/26 16:48:09;;;;;;;9.10;3.80;;;12.50;98.60;;;;;;6298847;28;20197;-67
2023/10/26 16:51:10;;;;;;;6.90;3.57;;;12.50;98.60;;;;;;6292753;28;20309;-67
2023/10/26 16:54:11;;;;;;;7.63;6.83;;;12.50;99.60;;;;;;6297764;28;20216;-67
2023/10/26 16:57:12;;;;;;;8.63;7.73;;;12.50;99.00;;;;;;6299608;28;20238;-67
2023/10/26 17:00:15;;;;;;;8.80;7.50;;;12.50;99.70;;;;;;6276483;28;20208;-67
2023/10/26 17:03:16;;;;;;;10.03;9.03;;;12.50;99.30;;;;;;6298846;28;20251;-67
2023/10/26 17:06:18;;;;;;;11.40;10.40;;;12.50;99.60;;;;;;6282544;28;20197;-67
2023/10/26 17:09:19;;;;;;;6.67;6.10;;;12.50;99.80;;;;;;6289201;28;20189;-67
2023/10/26 17:12:20;;;;;;;4.37;3.20;;;12.40;99.40;;;;;;6300349;28;20207;-67
2023/10/26 17:15:21;;;;;;;4.80;3.40;;;12.50;99.90;;;;;;6270403;28;20217;-67
2023/10/26 17:18:23;;;;;;;2.97;2.30;;;12.50;99.90;;;;;;6280498;28;20199;-67
2023/10/26 17:21:25;;;;;;;3.77;2.63;;;12.50;99.90;;;;;;6289151;28;20247;-67
2023/10/26 17:24:26;;;;;;;2.57;2.23;;;12.50;99.70;;;;;;6281502;28;20193;-67
2023/10/26 17:27:28;;;;;;;6.70;3.23;;;12.50;99.50;;;;;;6305619;28;20184;-67
2023/10/26 17:30:29;;;;;;;2.97;2.67;;;12.50;99.70;;;;;;6285232;28;20189;-67
2023/10/26 17:33:30;;;;;;;6.93;2.33;;;12.50;99.30;;;;;;6302186;28;20196;-67
2023/10/26 17:36:32;;;;;;;3.47;2.00;;;12.50;99.80;;;;;;6302199;28;20236;-67
2023/10/26 17:39:33;;;;;;;4.93;2.43;;;12.50;99.40;;;;;;6283428;28;20287;-67
2023/10/26 17:42:36;;;;;;;4.90;2.47;;;12.50;99.30;;;;;;6288670;28;20203;-67
2023/10/26 17:45:38;;;;;;;6.47;4.13;;;12.50;99.50;;;;;;6300478;28;20201;-67